Time;durP1;ratioP1;P1;durP2;ratioP2;P2;SDS_P1;SDS_P2;PMS_P1;PMS_P2;Temp;Humidity;BMP_temperature;BMP_pressure;BME280_temperature;BME280_humidity;BME280_pressure;Samples;Min_cycle;Max_cycle;Signal;HPM_P1;HPM_P2
2021/03/23 00:00:49;;;;;;;6.83;1.70;;;5.00;99.90;;;;;;4983159;28;20211;-85
2021/03/23 00:03:24;;;;;;;2.70;1.67;;;5.00;99.90;;;;;;4980171;28;20269;-85
2021/03/23 00:05:50;;;;;;;1.10;1.03;;;5.00;99.90;;;;;;4982039;28;20219;-85
2021/03/23 00:08:27;;;;;;;1.13;1.00;;;5.00;99.90;;;;;;5002634;28;20222;-85
2021/03/23 00:10:55;;;;;;;2.03;1.50;;;5.00;99.90;;;;;;4984366;28;20253;-85
2021/03/23 00:13:21;;;;;;;1.70;1.23;;;5.00;99.90;;;;;;5002655;28;20594;-86
2021/03/23 00:15:47;;;;;;;1.60;1.50;;;4.90;99.90;;;;;;4986214;28;20704;-84
2021/03/23 00:18:14;;;;;;;2.03;0.97;;;4.90;99.90;;;;;;5002330;28;20219;-85
2021/03/23 00:20:40;;;;;;;1.07;0.70;;;4.90;99.90;;;;;;5002340;28;20834;-85
2021/03/23 00:23:07;;;;;;;2.03;1.70;;;4.80;99.90;;;;;;4979471;28;20757;-84
2021/03/23 00:25:32;;;;;;;1.23;1.23;;;4.80;99.90;;;;;;4980671;28;20265;-85
2021/03/23 00:27:58;;;;;;;2.60;2.00;;;4.80;99.90;;;;;;4963543;28;20183;-85
2021/03/23 00:30:24;;;;;;;6.83;1.47;;;4.70;99.90;;;;;;4966472;28;20200;-85
2021/03/23 00:32:50;;;;;;;1.27;1.17;;;4.70;99.90;;;;;;4982229;28;20306;-84
2021/03/23 00:35:17;;;;;;;3.13;2.33;;;4.70;99.90;;;;;;4983319;28;20215;-85
2021/03/23 00:37:43;;;;;;;1.67;1.23;;;4.70;99.90;;;;;;4968405;28;20246;-85
2021/03/23 00:40:16;;;;;;;2.10;1.20;;;4.60;99.90;;;;;;4984043;28;20241;-85
2021/03/23 00:42:42;;;;;;;0.80;0.80;;;4.70;99.90;;;;;;5004008;28;20175;-86
2021/03/23 00:45:08;;;;;;;5.70;1.63;;;4.60;99.90;;;;;;4984601;28;20281;-85
2021/03/23 00:47:34;;;;;;;1.30;1.30;;;4.60;99.90;;;;;;5002830;28;20249;-85
2021/03/23 00:50:00;;;;;;;0.73;0.73;;;4.60;99.90;;;;;;4968246;28;20302;-85
2021/03/23 00:52:26;;;;;;;1.73;0.80;;;4.60;99.90;;;;;;4984767;28;20249;-85
2021/03/23 00:54:52;;;;;;;3.30;2.13;;;4.60;99.90;;;;;;5002384;28;20277;-85
2021/03/23 00:57:19;;;;;;;1.53;1.43;;;4.50;99.90;;;;;;4967091;28;20223;-84
2021/03/23 00:59:45;;;;;;;1.00;1.00;;;4.50;99.90;;;;;;4995713;28;20317;-84
2021/03/23 01:02:11;;;;;;;0.90;0.87;;;4.50;99.90;;;;;;4983703;28;20310;-84
2021/03/23 01:04:37;;;;;;;1.90;1.80;;;4.50;99.90;;;;;;4983816;28;20780;-85
2021/03/23 01:07:03;;;;;;;1.27;1.03;;;4.50;99.90;;;;;;4968284;28;20503;-84
2021/03/23 01:09:29;;;;;;;1.43;1.33;;;4.50;99.90;;;;;;4985391;28;20708;-84
2021/03/23 01:11:55;;;;;;;1.60;1.50;;;4.50;99.90;;;;;;4967393;28;20235;-86
2021/03/23 01:14:21;;;;;;;1.00;1.00;;;4.50;99.90;;;;;;4974379;28;20814;-84
2021/03/23 01:16:47;;;;;;;8.17;1.57;;;4.50;99.90;;;;;;4983651;28;20779;-83
2021/03/23 01:19:13;;;;;;;2.27;2.07;;;4.50;99.90;;;;;;4968632;28;20238;-84
2021/03/23 01:21:39;;;;;;;1.87;1.77;;;4.50;99.90;;;;;;4984287;28;20211;-86
2021/03/23 01:24:08;;;;;;;2.77;2.57;;;4.50;99.90;;;;;;4978703;28;20273;-84
2021/03/23 01:26:34;;;;;;;2.33;2.13;;;4.50;99.90;;;;;;5000402;28;20215;-85
2021/03/23 01:29:00;;;;;;;2.33;2.13;;;4.50;99.90;;;;;;4967537;28;20595;-84
2021/03/23 01:31:26;;;;;;;3.63;1.60;;;4.50;99.90;;;;;;4983049;28;20238;-84
2021/03/23 01:33:51;;;;;;;2.27;2.07;;;4.50;99.90;;;;;;4952854;28;20183;-85
2021/03/23 01:36:17;;;;;;;2.47;2.27;;;4.50;99.90;;;;;;4967617;28;20735;-85
2021/03/23 01:38:43;;;;;;;5.13;2.97;;;4.50;99.90;;;;;;4967132;28;20250;-85
2021/03/23 01:41:09;;;;;;;1.93;1.40;;;4.50;99.90;;;;;;5001688;28;20260;-86
2021/03/23 01:43:36;;;;;;;2.53;1.80;;;4.40;99.90;;;;;;5001430;28;20631;-84
2021/03/23 01:46:23;;;;;;;4.30;3.87;;;4.40;99.90;;;;;;4994008;28;20191;-86
2021/03/23 01:48:48;;;;;;;3.00;2.20;;;4.40;99.90;;;;;;4977917;28;20670;-87
2021/03/23 01:51:15;;;;;;;4.17;3.23;;;4.40;99.90;;;;;;5000011;28;20227;-87
2021/03/23 01:53:46;;;;;;;3.97;2.60;;;4.40;99.90;;;;;;4984022;28;20242;-86
2021/03/23 01:56:13;;;;;;;6.30;3.70;;;4.40;99.90;;;;;;4982051;28;20726;-85
2021/03/23 01:58:48;;;;;;;4.30;3.47;;;4.30;99.90;;;;;;5001822;28;20226;-86
2021/03/23 02:01:17;;;;;;;3.97;2.47;;;4.30;99.90;;;;;;5001472;28;20249;-85
2021/03/23 02:03:44;;;;;;;3.70;3.37;;;4.20;99.90;;;;;;5002775;28;20210;-85
2021/03/23 02:06:37;;;;;;;5.03;3.20;;;4.20;99.90;;;;;;4963353;28;20219;-84
2021/03/23 02:09:05;;;;;;;3.07;1.97;;;4.10;99.90;;;;;;5003514;28;20225;-86
2021/03/23 02:11:32;;;;;;;5.23;2.37;;;4.10;99.90;;;;;;4998082;28;20692;-86
2021/03/23 02:13:58;;;;;;;4.37;3.33;;;4.00;99.90;;;;;;5004839;28;20681;-86
2021/03/23 02:16:24;;;;;;;1.67;1.57;;;4.00;99.90;;;;;;4987842;28;20598;-86
2021/03/23 02:18:51;;;;;;;2.87;2.53;;;3.90;99.90;;;;;;4988202;28;20184;-86
2021/03/23 02:21:19;;;;;;;2.80;1.83;;;3.90;99.90;;;;;;4986565;28;20234;-86
2021/03/23 02:23:53;;;;;;;2.13;1.50;;;3.80;99.90;;;;;;5002824;28;20219;-84
2021/03/23 02:26:26;;;;;;;6.47;2.53;;;3.80;99.90;;;;;;4998183;28;20215;-84
2021/03/23 02:29:02;;;;;;;2.43;2.00;;;3.80;99.90;;;;;;5000341;28;20226;-86
2021/03/23 02:31:33;;;;;;;5.23;2.43;;;3.70;99.90;;;;;;4987639;28;20289;-86
2021/03/23 02:33:59;;;;;;;3.83;2.23;;;3.70;99.90;;;;;;5005198;28;20287;-84
2021/03/23 02:36:26;;;;;;;3.40;2.00;;;3.80;99.90;;;;;;4987603;28;20187;-86
2021/03/23 02:38:52;;;;;;;3.83;2.63;;;3.90;99.90;;;;;;4986389;28;20223;-86
2021/03/23 02:41:19;;;;;;;4.00;1.83;;;4.00;99.90;;;;;;4970019;28;20336;-86
2021/03/23 02:43:45;;;;;;;3.47;3.17;;;4.10;99.90;;;;;;4969881;28;20215;-84
2021/03/23 02:46:11;;;;;;;2.53;2.33;;;4.10;99.90;;;;;;5004802;28;20269;-85
2021/03/23 02:48:37;;;;;;;7.80;2.07;;;4.10;99.90;;;;;;4987949;28;20654;-85
2021/03/23 02:51:03;;;;;;;11.37;3.33;;;4.10;99.90;;;;;;4986846;28;20225;-86
2021/03/23 02:53:29;;;;;;;2.37;2.20;;;4.20;99.90;;;;;;4970170;28;20223;-86
2021/03/23 02:55:55;;;;;;;16.27;2.60;;;4.20;99.90;;;;;;4986663;28;20218;-86
2021/03/23 02:58:21;;;;;;;4.40;3.73;;;4.30;99.90;;;;;;5005134;28;20265;-86
2021/03/23 03:00:47;;;;;;;3.70;2.53;;;4.30;99.90;;;;;;4988775;28;20269;-86
2021/03/23 03:03:13;;;;;;;4.10;2.63;;;4.40;99.90;;;;;;4969915;28;20234;-85
2021/03/23 03:05:39;;;;;;;7.73;4.00;;;4.50;99.90;;;;;;4985442;28;20227;-86
2021/03/23 03:08:06;;;;;;;3.33;2.50;;;4.50;99.90;;;;;;4978943;28;20211;-86
2021/03/23 03:10:32;;;;;;;8.87;3.23;;;4.60;99.90;;;;;;4969301;28;20254;-86
2021/03/23 03:13:00;;;;;;;7.30;3.67;;;4.70;99.90;;;;;;4969844;28;20245;-84
2021/03/23 03:15:26;;;;;;;6.10;3.83;;;4.70;99.90;;;;;;5003251;28;20227;-85
2021/03/23 03:17:52;;;;;;;7.63;4.03;;;4.90;99.90;;;;;;4985334;28;20215;-86
2021/03/23 03:20:18;;;;;;;5.23;4.40;;;4.90;99.90;;;;;;4969590;28;20707;-85
2021/03/23 03:22:44;;;;;;;13.37;4.67;;;5.00;99.90;;;;;;4968224;28;20227;-86
2021/03/23 03:25:12;;;;;;;7.50;3.90;;;5.00;99.90;;;;;;4960317;28;20187;-85
2021/03/23 03:27:38;;;;;;;5.17;2.93;;;5.10;99.90;;;;;;5005663;28;20184;-85
2021/03/23 03:30:07;;;;;;;12.70;5.63;;;5.10;99.90;;;;;;4986305;28;20246;-85
2021/03/23 03:32:33;;;;;;;7.90;3.93;;;5.10;99.90;;;;;;5003851;28;20269;-84
2021/03/23 03:34:58;;;;;;;3.97;3.63;;;5.10;99.90;;;;;;4985416;28;20591;-86
2021/03/23 03:37:24;;;;;;;4.77;3.90;;;5.20;99.90;;;;;;5001380;28;20810;-86
2021/03/23 03:39:50;;;;;;;5.80;5.03;;;5.20;99.90;;;;;;4970772;28;21009;-84
2021/03/23 03:42:16;;;;;;;6.07;5.00;;;5.20;99.90;;;;;;4969445;28;20237;-86
2021/03/23 03:44:41;;;;;;;8.73;5.97;;;5.20;99.90;;;;;;4963134;28;20207;-86
2021/03/23 03:47:07;;;;;;;6.43;5.93;;;5.20;99.90;;;;;;4969405;28;20227;-84
2021/03/23 03:49:33;;;;;;;5.90;5.27;;;5.30;99.90;;;;;;4969203;28;20237;-86
2021/03/23 03:51:59;;;;;;;13.37;7.00;;;5.30;99.90;;;;;;4969295;28;20319;-84
2021/03/23 03:54:24;;;;;;;12.90;6.10;;;5.30;99.90;;;;;;4971385;28;20198;-85
2021/03/23 03:56:50;;;;;;;10.23;6.03;;;5.40;99.90;;;;;;5002036;28;21037;-85
2021/03/23 03:59:16;;;;;;;18.67;7.53;;;5.40;99.90;;;;;;4952968;28;20230;-85
2021/03/23 04:01:41;;;;;;;11.67;7.33;;;5.40;99.90;;;;;;4969067;28;20673;-85
2021/03/23 04:04:07;;;;;;;12.90;5.00;;;5.40;99.90;;;;;;4996032;28;20198;-86
2021/03/23 04:06:33;;;;;;;6.87;5.20;;;5.50;99.90;;;;;;4985842;28;20840;-85
2021/03/23 04:08:59;;;;;;;6.23;5.53;;;5.50;99.90;;;;;;4983943;28;20337;-85
2021/03/23 04:11:25;;;;;;;17.10;7.60;;;5.60;99.90;;;;;;4984849;28;20218;-85
2021/03/23 04:13:50;;;;;;;11.10;7.70;;;5.60;99.90;;;;;;4996684;28;20265;-85
2021/03/23 04:16:16;;;;;;;13.73;7.73;;;5.60;99.90;;;;;;4984846;28;20239;-85
2021/03/23 04:18:42;;;;;;;7.13;6.37;;;5.70;99.90;;;;;;4953148;28;20195;-85
2021/03/23 04:21:08;;;;;;;18.07;8.23;;;5.70;99.90;;;;;;4968866;28;20812;-85
2021/03/23 04:23:40;;;;;;;14.10;7.87;;;5.70;99.90;;;;;;4951310;28;20238;-85
2021/03/23 04:26:08;;;;;;;8.70;6.93;;;5.80;99.90;;;;;;4985134;28;20230;-85
2021/03/23 04:28:35;;;;;;;11.33;6.60;;;5.80;99.90;;;;;;4969162;28;20234;-87
2021/03/23 04:31:01;;;;;;;6.63;5.63;;;5.80;99.90;;;;;;4983304;28;20191;-86
2021/03/23 04:33:28;;;;;;;15.20;6.67;;;5.80;99.90;;;;;;4985770;28;20187;-86
2021/03/23 04:36:00;;;;;;;9.83;6.77;;;5.90;99.90;;;;;;4967731;28;20708;-87
2021/03/23 04:38:31;;;;;;;7.33;6.63;;;5.90;99.90;;;;;;4984646;28;20215;-86
2021/03/23 04:40:59;;;;;;;11.00;4.97;;;5.90;99.90;;;;;;4963583;28;20222;-85
2021/03/23 04:43:38;;;;;;;14.63;7.37;;;5.90;99.90;;;;;;4984701;28;20730;-87
2021/03/23 04:46:04;;;;;;;19.70;7.30;;;5.90;99.90;;;;;;4983460;28;20248;-87
2021/03/23 04:48:30;;;;;;;9.20;7.10;;;5.90;99.90;;;;;;4981242;28;20192;-87
2021/03/23 04:50:56;;;;;;;10.50;6.53;;;6.00;99.90;;;;;;4978976;28;20254;-86
2021/03/23 04:53:34;;;;;;;9.90;6.27;;;6.00;99.90;;;;;;4982018;28;20233;-88
2021/03/23 04:56:00;;;;;;;15.43;7.00;;;5.90;99.90;;;;;;4983019;28;21084;-87
2021/03/23 04:58:27;;;;;;;7.60;6.70;;;6.00;99.90;;;;;;4983582;28;20226;-86
2021/03/23 05:00:55;;;;;;;14.00;8.00;;;6.00;99.90;;;;;;4985962;28;20241;-84
2021/03/23 05:03:23;;;;;;;12.20;6.70;;;6.00;99.90;;;;;;4984314;28;20231;-85
2021/03/23 05:05:57;;;;;;;12.63;7.53;;;6.00;99.90;;;;;;4983706;28;20273;-87
2021/03/23 05:08:24;;;;;;;12.17;6.67;;;6.00;99.90;;;;;;5000365;28;20253;-87
2021/03/23 05:10:52;;;;;;;10.47;6.23;;;6.00;99.90;;;;;;4979255;28;20230;-85
2021/03/23 05:13:18;;;;;;;10.70;7.27;;;5.90;99.90;;;;;;4979296;28;20231;-85
2021/03/23 05:15:45;;;;;;;16.90;7.20;;;6.00;99.90;;;;;;4998480;28;20254;-87
2021/03/23 05:18:11;;;;;;;11.50;7.50;;;5.90;99.90;;;;;;4961021;28;20219;-85
2021/03/23 05:20:36;;;;;;;9.23;4.77;;;5.90;99.90;;;;;;4966286;28;20212;-85
2021/03/23 05:23:02;;;;;;;13.03;7.30;;;6.00;99.90;;;;;;4965565;28;20281;-87
2021/03/23 05:25:28;;;;;;;10.60;7.93;;;6.00;99.90;;;;;;4984161;28;20262;-86
2021/03/23 05:27:54;;;;;;;7.40;6.67;;;6.00;99.90;;;;;;4952004;28;20670;-85
2021/03/23 05:30:20;;;;;;;13.97;7.70;;;5.90;99.90;;;;;;4970095;28;20990;-87
2021/03/23 05:32:46;;;;;;;12.27;7.27;;;5.90;99.90;;;;;;4971833;28;20246;-87
2021/03/23 05:35:13;;;;;;;13.40;9.33;;;5.90;99.90;;;;;;4982780;28;20273;-86
2021/03/23 05:37:39;;;;;;;12.07;9.57;;;5.90;99.90;;;;;;4980467;28;20253;-85
2021/03/23 05:40:07;;;;;;;13.17;10.03;;;5.90;99.90;;;;;;4950820;28;20198;-86
2021/03/23 05:42:42;;;;;;;16.73;10.67;;;6.00;99.90;;;;;;4989045;28;20278;-87
2021/03/23 05:45:33;;;;;;;14.10;9.90;;;5.90;99.90;;;;;;4981804;28;20726;-88
2021/03/23 05:48:18;;;;;;;12.30;7.60;;;5.90;99.90;;;;;;5004291;28;20251;-86
2021/03/23 05:50:54;;;;;;;35.20;11.77;;;6.00;99.90;;;;;;4987435;28;20235;-88
2021/03/23 05:53:34;;;;;;;14.30;8.50;;;5.90;99.90;;;;;;4987748;28;20364;-88
2021/03/23 05:56:02;;;;;;;14.40;7.63;;;5.90;99.90;;;;;;5005507;28;20298;-88
2021/03/23 05:58:32;;;;;;;17.10;7.63;;;5.90;99.90;;;;;;4997326;28;20682;-88
2021/03/23 06:01:05;;;;;;;10.63;7.67;;;5.90;99.90;;;;;;5002787;28;20215;-88
2021/03/23 06:03:54;;;;;;;11.03;8.60;;;5.90;99.90;;;;;;5005036;28;20192;-87
2021/03/23 06:06:49;;;;;;;17.87;15.00;;;6.00;99.90;;;;;;4987826;28;20232;-87
2021/03/23 06:09:17;;;;;;;11.83;7.90;;;6.00;99.90;;;;;;4987452;28;20229;-87
2021/03/23 06:11:42;;;;;;;22.50;11.33;;;6.00;99.90;;;;;;4961710;28;20293;-86
2021/03/23 06:14:17;;;;;;;16.27;8.17;;;6.00;99.90;;;;;;4986862;28;20219;-87
2021/03/23 06:16:57;;;;;;;9.50;8.23;;;6.10;99.90;;;;;;5002453;28;20233;-88
2021/03/23 06:19:52;;;;;;;8.03;6.37;;;6.10;99.90;;;;;;5003679;28;20322;-86
2021/03/23 06:23:00;;;;;;;10.80;7.67;;;6.10;99.90;;;;;;4985243;28;20242;-86
2021/03/23 06:25:34;;;;;;;9.27;7.23;;;6.20;99.90;;;;;;5005008;28;20230;-86
2021/03/23 06:28:26;;;;;;;15.60;8.43;;;6.20;99.90;;;;;;5000791;28;20540;-90
2021/03/23 06:31:41;;;;;;;13.03;8.67;;;6.20;99.90;;;;;;4987648;28;20680;-89
2021/03/23 06:34:25;;;;;;;14.70;8.73;;;6.30;99.90;;;;;;4936484;28;20220;-90
2021/03/23 06:36:51;;;;;;;11.60;9.30;;;6.30;99.90;;;;;;4940377;28;20205;-89
2021/03/23 06:39:19;;;;;;;22.07;9.07;;;6.30;99.90;;;;;;4964974;28;20298;-90
2021/03/23 06:41:56;;;;;;;10.13;7.67;;;6.40;99.90;;;;;;5004366;28;20234;-90
2021/03/23 06:44:35;;;;;;;10.90;7.23;;;6.40;99.90;;;;;;4994601;28;20223;-90
2021/03/23 06:47:02;;;;;;;11.73;7.90;;;6.40;99.90;;;;;;5004738;28;20211;-90
2021/03/23 06:49:37;;;;;;;13.50;8.83;;;6.50;99.90;;;;;;4985816;28;20234;-89
2021/03/23 06:52:24;;;;;;;13.87;8.47;;;6.50;99.90;;;;;;4984334;28;20203;-90
2021/03/23 06:55:07;;;;;;;11.40;7.17;;;6.60;99.90;;;;;;4972238;28;20187;-91
2021/03/23 06:57:37;;;;;;;12.47;8.67;;;6.70;99.90;;;;;;5002567;28;20218;-88
2021/03/23 07:00:30;;;;;;;13.13;8.60;;;6.70;99.90;;;;;;4968943;28;20215;-88
2021/03/23 07:03:24;;;;;;;13.47;8.87;;;6.70;99.90;;;;;;4987206;28;20330;-89
2021/03/23 07:05:50;;;;;;;12.50;7.10;;;6.80;99.90;;;;;;4987795;28;20265;-88
2021/03/23 07:08:20;;;;;;;15.83;8.17;;;6.80;99.90;;;;;;4970154;28;20211;-88
2021/03/23 07:10:52;;;;;;;19.57;9.90;;;6.80;99.90;;;;;;4985312;28;20301;-89
2021/03/23 07:13:27;;;;;;;13.77;8.73;;;6.80;99.90;;;;;;5000047;28;20231;-89
2021/03/23 07:16:00;;;;;;;17.20;7.30;;;6.80;99.90;;;;;;5003464;28;20239;-88
2021/03/23 07:18:29;;;;;;;24.70;11.13;;;6.90;99.90;;;;;;4985323;28;20276;-89
2021/03/23 07:21:03;;;;;;;18.27;9.23;;;7.00;99.90;;;;;;4986363;28;20242;-88
2021/03/23 07:23:37;;;;;;;18.07;10.63;;;7.10;99.90;;;;;;4983039;28;20226;-91
2021/03/23 07:26:29;;;;;;;11.37;9.07;;;7.10;99.90;;;;;;5004280;28;20229;-90
2021/03/23 07:29:10;;;;;;;12.37;9.77;;;7.10;99.90;;;;;;4984832;28;20269;-88
2021/03/23 07:31:42;;;;;;;10.83;7.33;;;7.10;99.90;;;;;;5001604;28;20222;-89
2021/03/23 07:34:13;;;;;;;22.30;9.67;;;7.20;99.90;;;;;;4996016;28;20191;-89
2021/03/23 07:36:55;;;;;;;18.97;8.83;;;7.40;99.90;;;;;;5003436;28;20183;-89
2021/03/23 07:39:32;;;;;;;14.20;11.10;;;7.50;99.90;;;;;;5006092;28;20215;-90
2021/03/23 07:42:06;;;;;;;19.77;10.60;;;7.70;99.90;;;;;;4990826;28;20757;-90
2021/03/23 07:44:41;;;;;;;20.60;13.27;;;7.90;99.90;;;;;;5007931;28;20246;-91
2021/03/23 07:47:21;;;;;;;29.10;14.37;;;7.90;99.90;;;;;;4990746;28;20288;-90
2021/03/23 07:49:59;;;;;;;20.40;11.93;;;8.10;99.90;;;;;;4991928;28;20223;-89
2021/03/23 07:53:03;;;;;;;21.00;12.03;;;8.50;99.90;;;;;;4994372;28;20297;-90
2021/03/23 07:55:30;;;;;;;17.03;10.70;;;8.70;99.90;;;;;;5007579;28;20270;-89
2021/03/23 07:58:13;;;;;;;18.27;10.17;;;8.80;99.90;;;;;;4990103;28;20187;-90
2021/03/23 08:00:58;;;;;;;16.20;12.17;;;8.70;99.90;;;;;;5008330;28;20187;-88
2021/03/23 08:03:46;;;;;;;16.87;8.17;;;8.70;99.90;;;;;;5012878;28;20218;-89
2021/03/23 08:06:23;;;;;;;19.50;11.43;;;8.70;99.90;;;;;;5002151;28;20219;-89
2021/03/23 08:09:18;;;;;;;12.77;5.40;;;8.90;99.90;;;;;;4994330;28;20215;-90
2021/03/23 08:12:14;;;;;;;11.13;9.57;;;8.90;99.90;;;;;;4996499;28;20234;-89
2021/03/23 08:14:54;;;;;;;20.93;8.67;;;9.20;99.90;;;;;;5010052;28;20813;-90
2021/03/23 08:17:58;;;;;;;15.03;8.33;;;9.40;99.90;;;;;;5007052;28;20235;-90
2021/03/23 08:20:57;;;;;;;13.77;9.50;;;10.00;99.90;;;;;;5005989;28;20714;-90
2021/03/23 08:23:56;;;;;;;13.80;9.17;;;10.40;99.90;;;;;;4992100;28;20239;-89
2021/03/23 08:26:28;;;;;;;14.67;8.83;;;11.40;99.90;;;;;;4947532;28;20219;-90
2021/03/23 08:29:17;;;;;;;14.33;8.77;;;11.80;99.90;;;;;;4988111;28;20269;-93
2021/03/23 08:32:04;;;;;;;15.03;8.53;;;12.50;99.90;;;;;;4975155;28;20705;-91
2021/03/23 08:34:39;;;;;;;10.83;8.23;;;12.60;99.90;;;;;;4979590;28;20684;-90
2021/03/23 08:37:35;;;;;;;13.60;8.87;;;12.60;99.90;;;;;;4987359;28;20196;-91
2021/03/23 08:40:50;;;;;;;14.87;9.07;;;12.20;99.90;;;;;;4985791;28;20226;-92
2021/03/23 08:43:35;;;;;;;13.70;8.50;;;12.90;99.90;;;;;;4925060;28;21174;-91
2021/03/23 08:46:14;;;;;;;16.17;10.60;;;13.50;99.90;;;;;;4957215;28;20561;-91
2021/03/23 08:48:49;;;;;;;16.77;9.73;;;13.60;99.90;;;;;;4991922;28;20180;-90
2021/03/23 08:51:20;;;;;;;21.53;11.73;;;13.10;99.90;;;;;;4995027;28;20237;-91
2021/03/23 08:54:01;;;;;;;16.20;9.23;;;13.90;99.90;;;;;;4996128;28;20569;-90
2021/03/23 08:56:42;;;;;;;17.23;9.33;;;13.90;99.90;;;;;;4983223;28;20211;-89
2021/03/23 08:59:36;;;;;;;15.30;8.73;;;13.50;99.90;;;;;;5004256;28;20219;-90
2021/03/23 09:02:09;;;;;;;20.33;10.60;;;14.00;99.90;;;;;;4994125;28;20243;-90
2021/03/23 09:04:42;;;;;;;18.13;9.27;;;14.60;99.90;;;;;;5008426;28;20230;-91
2021/03/23 09:07:26;;;;;;;13.77;8.40;;;15.10;99.90;;;;;;4983385;28;20179;-91
2021/03/23 09:10:54;;;;;;;18.77;9.10;;;15.60;99.90;;;;;;5002094;28;20301;-91
2021/03/23 09:17:02;;;;;;;15.80;8.17;;;13.30;99.90;;;;;;5010259;28;20297;-92
2021/03/23 09:19:50;;;;;;;18.10;9.07;;;13.40;99.90;;;;;;4993755;28;20230;-89
2021/03/23 09:22:25;;;;;;;13.07;8.57;;;12.70;99.90;;;;;;4990917;28;20226;-90
2021/03/23 09:25:42;;;;;;;16.67;7.87;;;12.80;99.90;;;;;;4997392;28;20198;-91
2021/03/23 09:28:10;;;;;;;14.10;7.73;;;12.70;99.90;;;;;;4948560;28;20243;-90
2021/03/23 09:30:47;;;;;;;13.80;7.57;;;13.20;99.90;;;;;;4979646;28;20198;-91
2021/03/23 09:33:22;;;;;;;15.07;8.47;;;12.90;99.90;;;;;;4995867;28;20179;-90
2021/03/23 09:36:09;;;;;;;16.17;8.63;;;13.20;99.90;;;;;;5011480;28;20212;-90
2021/03/23 09:38:53;;;;;;;14.20;8.87;;;13.80;99.90;;;;;;5008899;28;20183;-90
2021/03/23 09:44:26;;;;;;;15.33;7.87;;;15.20;99.90;;;;;;5010539;28;20215;-90
2021/03/23 09:46:56;;;;;;;17.57;8.83;;;14.80;99.90;;;;;;4992690;28;20223;-90
2021/03/23 09:49:48;;;;;;;16.63;8.73;;;14.50;99.90;;;;;;4978299;28;20231;-91
2021/03/23 09:52:30;;;;;;;15.07;9.27;;;14.10;99.90;;;;;;4989632;28;20276;-91
2021/03/23 09:55:00;;;;;;;11.10;6.80;;;14.10;99.90;;;;;;4992599;28;20199;-90
2021/03/23 09:57:32;;;;;;;15.77;8.60;;;13.70;99.90;;;;;;4995187;28;20194;-89
2021/03/23 10:00:39;;;;;;;15.47;8.57;;;13.20;99.90;;;;;;4977490;28;20220;-88
2021/03/23 10:03:38;;;;;;;14.97;8.53;;;12.50;99.90;;;;;;4955878;28;20233;-92
2021/03/23 10:06:08;;;;;;;13.80;6.37;;;12.30;99.90;;;;;;4917045;28;20277;-92
2021/03/23 10:08:35;;;;;;;11.67;8.03;;;12.30;99.90;;;;;;4926103;28;20233;-91
2021/03/23 10:11:13;;;;;;;13.23;7.90;;;12.30;99.90;;;;;;4933240;28;20227;-92
2021/03/23 10:13:49;;;;;;;12.07;8.33;;;11.80;99.90;;;;;;4942921;28;20217;-90
2021/03/23 10:16:24;;;;;;;16.53;8.83;;;11.60;99.90;;;;;;4939383;28;20244;-90
2021/03/23 10:18:50;;;;;;;11.37;7.17;;;11.50;99.90;;;;;;4958827;28;20287;-93
2021/03/23 10:21:25;;;;;;;15.07;8.30;;;11.60;99.90;;;;;;4943674;28;20249;-91
2021/03/23 10:23:56;;;;;;;18.27;9.27;;;11.80;99.90;;;;;;4936072;28;20254;-91
2021/03/23 10:26:28;;;;;;;15.83;10.30;;;12.20;99.90;;;;;;4944360;28;20225;-89
2021/03/23 10:29:09;;;;;;;20.97;8.80;;;12.00;99.90;;;;;;4957086;28;20228;-90
2021/03/23 10:31:40;;;;;;;18.23;9.03;;;12.00;99.90;;;;;;4941162;28;20235;-91
2021/03/23 10:34:14;;;;;;;12.23;7.97;;;12.00;99.90;;;;;;4980729;28;20200;-91
2021/03/23 10:36:55;;;;;;;15.33;8.47;;;12.00;99.90;;;;;;5012375;28;20635;-90
2021/03/23 10:39:54;;;;;;;15.77;8.60;;;12.60;99.90;;;;;;5010108;28;20310;-90
2021/03/23 10:42:27;;;;;;;13.90;7.63;;;12.90;99.90;;;;;;4995487;28;20223;-91
2021/03/23 10:45:27;;;;;;;17.77;8.47;;;12.50;99.90;;;;;;4994232;28;20212;-91
2021/03/23 10:48:17;;;;;;;12.50;8.33;;;12.10;99.90;;;;;;5003102;28;20215;-90
2021/03/23 10:50:46;;;;;;;11.77;6.90;;;11.90;99.90;;;;;;5001387;28;20688;-91
2021/03/23 10:53:21;;;;;;;14.63;8.93;;;12.00;99.90;;;;;;4985728;28;20689;-89
2021/03/23 10:55:50;;;;;;;19.27;9.00;;;11.70;99.90;;;;;;5005591;28;20223;-91
2021/03/23 10:58:25;;;;;;;14.23;8.03;;;11.60;99.90;;;;;;4987637;28;20231;-89
2021/03/23 11:01:16;;;;;;;13.83;8.17;;;11.60;99.90;;;;;;4990395;28;20187;-90
2021/03/23 11:03:44;;;;;;;15.07;8.47;;;11.70;99.90;;;;;;4987379;28;20227;-90
2021/03/23 11:06:30;;;;;;;12.80;8.07;;;11.70;99.90;;;;;;4977446;28;20215;-90
2021/03/23 11:08:58;;;;;;;12.60;7.47;;;11.70;99.90;;;;;;5002327;28;20672;-89
2021/03/23 11:11:24;;;;;;;20.23;10.13;;;11.20;99.90;;;;;;4982788;28;20227;-90
2021/03/23 11:13:52;;;;;;;13.57;9.00;;;11.80;99.90;;;;;;4985037;28;20746;-88
2021/03/23 11:16:23;;;;;;;13.60;7.83;;;12.70;99.90;;;;;;4992188;28;20239;-91
2021/03/23 11:18:49;;;;;;;13.50;8.50;;;13.40;99.90;;;;;;4993400;28;20633;-92
2021/03/23 11:21:18;;;;;;;16.40;9.57;;;14.00;99.90;;;;;;4990568;28;20288;-91
2021/03/23 11:23:51;;;;;;;20.13;9.90;;;14.90;99.90;;;;;;4989664;28;20227;-92
2021/03/23 11:26:39;;;;;;;18.07;8.93;;;15.40;99.90;;;;;;4992211;28;20234;-92
2021/03/23 11:29:08;;;;;;;15.67;9.50;;;15.70;99.90;;;;;;4975223;28;20219;-92
2021/03/23 11:31:46;;;;;;;16.63;8.87;;;15.90;99.90;;;;;;4950280;28;20263;-90
2021/03/23 11:35:00;;;;;;;18.30;9.77;;;16.00;99.90;;;;;;4980739;28;20280;-90
2021/03/23 11:37:27;;;;;;;16.93;8.47;;;14.70;99.90;;;;;;4914864;28;21164;-91
2021/03/23 11:40:04;;;;;;;17.73;10.63;;;14.70;99.90;;;;;;4950795;28;21093;-91
2021/03/23 11:42:37;;;;;;;19.10;10.50;;;14.90;99.90;;;;;;4956366;28;20241;-91
2021/03/23 11:45:52;;;;;;;17.13;10.23;;;15.20;99.90;;;;;;4932253;28;20739;-90
2021/03/23 11:48:39;;;;;;;15.47;9.73;;;15.40;99.90;;;;;;4973900;28;20219;-91
2021/03/23 11:51:48;;;;;;;23.07;10.73;;;15.00;99.90;;;;;;4953876;28;20248;-91
2021/03/23 11:54:16;;;;;;;17.00;10.07;;;15.00;99.90;;;;;;4945818;28;20343;-91
2021/03/23 11:57:06;;;;;;;21.90;11.27;;;15.60;99.90;;;;;;4931481;28;21016;-91
2021/03/23 11:59:51;;;;;;;21.13;10.20;;;16.00;99.90;;;;;;4921938;28;20734;-92
2021/03/23 12:02:29;;;;;;;17.53;10.10;;;15.80;99.90;;;;;;4926323;28;20250;-91
2021/03/23 12:04:56;;;;;;;19.73;10.23;;;16.50;99.90;;;;;;4901330;28;20237;-91
2021/03/23 12:07:56;;;;;;;22.13;11.70;;;16.10;99.90;;;;;;4908523;28;20257;-91
2021/03/23 12:10:29;;;;;;;22.33;11.43;;;15.20;99.90;;;;;;4937070;28;20791;-91
2021/03/23 12:13:11;;;;;;;19.03;10.60;;;14.50;99.90;;;;;;4963507;28;20195;-90
2021/03/23 12:15:49;;;;;;;21.27;10.87;;;14.20;99.90;;;;;;4976089;28;20244;-91
2021/03/23 12:18:19;;;;;;;21.03;10.83;;;14.50;99.90;;;;;;4947820;28;20668;-91
2021/03/23 12:20:53;;;;;;;26.73;11.40;;;14.50;99.90;;;;;;4962378;28;20220;-90
2021/03/23 12:23:22;;;;;;;20.57;10.03;;;14.40;99.90;;;;;;4982570;28;20226;-92
2021/03/23 12:25:49;;;;;;;15.13;9.47;;;13.50;99.90;;;;;;4949792;28;20227;-92
2021/03/23 12:28:15;;;;;;;25.77;10.67;;;13.10;99.90;;;;;;4968431;28;20289;-90
2021/03/23 12:30:43;;;;;;;21.17;9.97;;;12.70;99.90;;;;;;4972224;28;20194;-92
2021/03/23 12:33:11;;;;;;;20.20;10.50;;;12.40;99.90;;;;;;4953269;28;20219;-93
2021/03/23 12:35:41;;;;;;;20.10;11.23;;;12.50;99.90;;;;;;4967067;28;20879;-91
2021/03/23 12:38:11;;;;;;;19.97;10.10;;;13.00;99.90;;;;;;4961819;28;20269;-91
2021/03/23 12:40:37;;;;;;;19.33;10.60;;;13.40;99.90;;;;;;4971193;28;20715;-90
2021/03/23 12:43:09;;;;;;;19.73;10.03;;;13.70;99.90;;;;;;5005116;28;20292;-89
2021/03/23 12:45:40;;;;;;;23.20;11.50;;;13.70;99.90;;;;;;5010463;28;20195;-91
2021/03/23 12:48:10;;;;;;;16.83;10.57;;;13.00;99.90;;;;;;4997767;28;20255;-92
2021/03/23 12:50:37;;;;;;;21.50;10.10;;;12.90;99.90;;;;;;4952236;28;20252;-91
2021/03/23 12:53:10;;;;;;;21.13;11.13;;;12.80;99.90;;;;;;4960589;28;20299;-89
2021/03/23 12:55:36;;;;;;;19.57;9.57;;;12.50;99.90;;;;;;4997584;28;20681;-93
2021/03/23 12:58:06;;;;;;;19.70;10.23;;;12.30;99.90;;;;;;4974625;28;20198;-90
2021/03/23 13:00:40;;;;;;;20.60;13.30;;;12.50;99.90;;;;;;4988026;28;20225;-91
2021/03/23 13:03:11;;;;;;;15.40;8.60;;;12.70;99.90;;;;;;4960218;28;20431;-91
2021/03/23 13:05:41;;;;;;;18.93;12.03;;;12.40;99.90;;;;;;5002660;28;20215;-89
2021/03/23 13:08:31;;;;;;;20.23;10.87;;;11.90;99.90;;;;;;4985139;28;20211;-90
2021/03/23 13:11:19;;;;;;;24.53;12.60;;;11.90;99.90;;;;;;4985264;28;20214;-88
2021/03/23 13:13:49;;;;;;;13.57;8.90;;;12.10;99.90;;;;;;4988215;28;20223;-91
2021/03/23 13:16:16;;;;;;;15.07;9.47;;;11.70;99.90;;;;;;4981153;28;20241;-91
2021/03/23 13:18:42;;;;;;;16.27;10.03;;;11.60;99.90;;;;;;4992535;28;21276;-92
2021/03/23 13:21:20;;;;;;;15.57;9.87;;;11.50;99.90;;;;;;4978678;28;20223;-90
2021/03/23 13:23:58;;;;;;;23.63;12.13;;;11.50;99.90;;;;;;4985587;28;20767;-91
2021/03/23 13:26:27;;;;;;;18.57;9.23;;;11.70;99.90;;;;;;4984927;28;20226;-92